Time;durP1;ratioP1;P1;durP2;ratioP2;P2;SDS_P1;SDS_P2;PMS_P1;PMS_P2;Temp;Humidity;BMP_temperature;BMP_pressure;BME280_temperature;BME280_humidity;BME280_pressure;Samples;Min_cycle;Max_cycle;Signal;HPM_P1;HPM_P2
2024/03/11 00:00:17;;;;;;;1.45;1.30;;;4.50;99.90;;;;;;5046566;28;20068;-64
2024/03/11 00:02:45;;;;;;;1.60;1.30;;;4.40;99.90;;;;;;5049056;28;20413;-64
2024/03/11 00:05:13;;;;;;;2.95;1.17;;;4.40;99.90;;;;;;5046146;28;20052;-64
2024/03/11 00:07:41;;;;;;;1.83;1.20;;;4.40;99.90;;;;;;5045946;28;20609;-65
2024/03/11 00:10:12;;;;;;;2.38;1.40;;;4.30;99.90;;;;;;5045922;28;20129;-64
2024/03/11 00:12:40;;;;;;;3.92;1.70;;;4.30;99.90;;;;;;5046047;28;20046;-65
2024/03/11 00:15:09;;;;;;;2.50;1.42;;;4.30;99.90;;;;;;5048288;28;20114;-64
2024/03/11 00:17:36;;;;;;;3.03;1.67;;;4.20;99.90;;;;;;5050713;28;20060;-64
2024/03/11 00:20:04;;;;;;;2.08;1.27;;;4.20;99.90;;;;;;5049237;28;20051;-64
2024/03/11 00:22:31;;;;;;;1.20;1.10;;;4.20;99.90;;;;;;5050365;28;20068;-64
2024/03/11 00:24:58;;;;;;;1.80;1.15;;;4.10;99.90;;;;;;5048812;28;20045;-65
2024/03/11 00:27:25;;;;;;;2.65;1.38;;;4.10;99.90;;;;;;5044689;28;20525;-64
2024/03/11 00:29:54;;;;;;;2.55;1.50;;;4.10;99.90;;;;;;5048091;28;20480;-64
2024/03/11 00:32:24;;;;;;;1.95;1.30;;;4.00;99.90;;;;;;5059620;28;20457;-65
2024/03/11 00:34:51;;;;;;;1.90;1.07;;;4.00;99.90;;;;;;5050875;28;20441;-65
2024/03/11 00:37:18;;;;;;;2.53;1.20;;;4.00;99.90;;;;;;5051484;28;20626;-64
2024/03/11 00:39:45;;;;;;;2.28;1.10;;;4.00;99.90;;;;;;5046490;28;20044;-64
2024/03/11 00:42:12;;;;;;;2.28;1.33;;;4.00;99.90;;;;;;5051671;28;20120;-64
2024/03/11 00:44:39;;;;;;;1.58;1.15;;;4.00;99.90;;;;;;5051292;28;20698;-65
2024/03/11 00:47:06;;;;;;;1.80;1.17;;;3.90;99.90;;;;;;5046372;28;20056;-65
2024/03/11 00:49:33;;;;;;;1.63;1.27;;;3.90;99.90;;;;;;5050702;28;20052;-64
2024/03/11 00:52:02;;;;;;;3.10;1.70;;;3.90;99.90;;;;;;5047213;28;20131;-64
2024/03/11 00:54:30;;;;;;;3.10;1.25;;;3.90;99.90;;;;;;5047482;28;20311;-64
2024/03/11 00:56:58;;;;;;;4.10;1.40;;;3.90;99.90;;;;;;5049642;28;20418;-64
2024/03/11 00:59:24;;;;;;;4.32;1.67;;;3.90;99.90;;;;;;5051427;28;20114;-64
2024/03/11 01:01:51;;;;;;;2.17;1.60;;;3.80;99.90;;;;;;5051041;28;20484;-64
2024/03/11 01:04:21;;;;;;;3.03;1.65;;;3.80;99.90;;;;;;5049642;28;20068;-64
2024/03/11 01:06:47;;;;;;;2.95;1.55;;;3.80;99.90;;;;;;5049128;28;20111;-64
2024/03/11 01:09:30;;;;;;;2.30;1.45;;;3.70;99.90;;;;;;5049104;28;20124;-64
2024/03/11 01:11:57;;;;;;;2.88;1.17;;;3.70;99.90;;;;;;5057764;28;20057;-65
2024/03/11 01:14:23;;;;;;;4.10;1.40;;;3.70;99.90;;;;;;5048251;28;20456;-64
2024/03/11 01:16:51;;;;;;;4.10;1.77;;;3.70;99.90;;;;;;5055307;28;20059;-64
2024/03/11 01:19:20;;;;;;;7.28;2.42;;;3.70;99.90;;;;;;5051982;28;20080;-64
2024/03/11 01:21:49;;;;;;;4.90;2.28;;;3.70;99.90;;;;;;5055381;28;20135;-64
2024/03/11 01:24:16;;;;;;;3.65;1.70;;;3.60;99.90;;;;;;5050535;28;20047;-64
2024/03/11 01:26:47;;;;;;;6.70;1.73;;;3.70;99.90;;;;;;5056155;28;20049;-64
2024/03/11 01:29:17;;;;;;;1.38;1.25;;;3.60;99.90;;;;;;5055780;28;20044;-64
2024/03/11 01:31:45;;;;;;;2.67;1.58;;;3.60;99.90;;;;;;5051812;28;20048;-64
2024/03/11 01:34:12;;;;;;;2.40;1.50;;;3.60;99.90;;;;;;5055091;28;20048;-64
2024/03/11 01:36:39;;;;;;;1.55;1.27;;;3.60;99.90;;;;;;5057513;28;20472;-64
2024/03/11 01:39:09;;;;;;;2.53;1.25;;;3.70;99.90;;;;;;5051432;28;20144;-64
2024/03/11 01:41:37;;;;;;;4.30;1.70;;;3.70;99.90;;;;;;5058301;28;20094;-64
2024/03/11 01:44:07;;;;;;;3.42;1.85;;;3.70;99.90;;;;;;5052873;28;20139;-64
2024/03/11 01:46:34;;;;;;;;;;;3.70;99.90;;;;;;5059031;28;20170;-65
2024/03/11 01:49:04;;;;;;;1.60;1.50;;;3.70;99.90;;;;;;5055757;28;20303;-64
2024/03/11 01:51:33;;;;;;;3.17;1.42;;;3.70;99.90;;;;;;5056916;28;20045;-64
2024/03/11 01:54:00;;;;;;;4.90;1.80;;;3.70;99.90;;;;;;5046446;28;20049;-64
2024/03/11 01:56:28;;;;;;;4.22;1.75;;;3.70;99.90;;;;;;5051641;28;20549;-64
2024/03/11 01:58:57;;;;;;;1.77;1.58;;;3.60;99.90;;;;;;5052878;28;20051;-64
2024/03/11 02:01:24;;;;;;;4.82;1.60;;;3.60;99.90;;;;;;5050551;28;20594;-64
2024/03/11 02:03:51;;;;;;;7.00;2.22;;;3.60;99.90;;;;;;5050482;28;20525;-64
2024/03/11 02:06:18;;;;;;;4.47;1.73;;;3.60;99.90;;;;;;5051029;28;20459;-64
2024/03/11 02:08:44;;;;;;;3.45;2.28;;;3.70;99.90;;;;;;5056395;28;20075;-64
2024/03/11 02:11:11;;;;;;;6.68;2.35;;;3.60;99.90;;;;;;5045893;28;20053;-64
2024/03/11 02:13:38;;;;;;;4.65;2.67;;;3.60;99.90;;;;;;5051278;28;20040;-64
2024/03/11 02:16:06;;;;;;;5.80;2.10;;;3.60;99.90;;;;;;5045106;28;20064;-64
2024/03/11 02:18:34;;;;;;;5.03;2.30;;;3.60;99.90;;;;;;5055173;28;20047;-64
2024/03/11 02:21:02;;;;;;;4.28;2.20;;;3.70;99.90;;;;;;5042721;28;20060;-64
2024/03/11 02:23:28;;;;;;;4.03;2.38;;;3.80;99.90;;;;;;5040375;28;20050;-64
2024/03/11 02:25:55;;;;;;;5.88;2.22;;;3.90;99.90;;;;;;5045867;28;20046;-64
2024/03/11 02:28:22;;;;;;;3.08;1.70;;;4.00;99.90;;;;;;5045860;28;20051;-64
2024/03/11 02:30:49;;;;;;;3.92;1.90;;;4.00;99.90;;;;;;5050045;28;20048;-64
2024/03/11 02:33:16;;;;;;;3.75;2.10;;;4.00;99.90;;;;;;5050398;28;20044;-64
2024/03/11 02:35:43;;;;;;;4.07;1.80;;;4.00;99.90;;;;;;5055241;28;20064;-64
2024/03/11 02:38:09;;;;;;;3.50;1.50;;;4.00;99.90;;;;;;5045462;28;20049;-64
2024/03/11 02:40:39;;;;;;;3.25;1.27;;;4.10;99.90;;;;;;5053988;28;20049;-64
2024/03/11 02:43:06;;;;;;;1.30;1.20;;;4.10;99.90;;;;;;5054506;28;20044;-64
2024/03/11 02:45:34;;;;;;;2.78;1.27;;;4.10;99.90;;;;;;5050791;28;20041;-64
2024/03/11 02:48:01;;;;;;;6.45;2.78;;;4.10;99.90;;;;;;5043702;28;20182;-64
2024/03/11 02:50:28;;;;;;;3.22;1.70;;;4.10;99.90;;;;;;5046994;28;20056;-64
2024/03/11 02:52:56;;;;;;;1.30;1.20;;;4.10;99.90;;;;;;5050341;28;20057;-64
2024/03/11 02:55:23;;;;;;;3.28;1.20;;;4.20;99.90;;;;;;5049875;28;20511;-64
2024/03/11 02:57:51;;;;;;;3.30;1.40;;;4.30;99.90;;;;;;5052934;28;20048;-64
2024/03/11 03:00:18;;;;;;;3.90;1.55;;;4.50;99.90;;;;;;5044093;28;20057;-64
2024/03/11 03:02:49;;;;;;;1.73;1.23;;;4.60;99.90;;;;;;5049002;28;20050;-64
2024/03/11 03:05:17;;;;;;;1.65;1.00;;;4.80;99.90;;;;;;5042832;28;20524;-64
2024/03/11 03:07:44;;;;;;;1.80;1.10;;;5.00;99.90;;;;;;5046587;28;20068;-64
2024/03/11 03:10:11;;;;;;;0.80;0.80;;;5.30;99.90;;;;;;5046888;28;20047;-64
2024/03/11 03:12:38;;;;;;;1.35;0.77;;;5.70;99.90;;;;;;5053779;28;20103;-64
2024/03/11 03:15:05;;;;;;;1.50;0.80;;;6.00;99.90;;;;;;5049290;28;21022;-64
2024/03/11 03:17:33;;;;;;;1.02;0.65;;;6.10;99.90;;;;;;5044931;28;20494;-64
2024/03/11 03:20:00;;;;;;;1.63;1.00;;;6.20;99.90;;;;;;5046190;28;20060;-64
2024/03/11 03:22:27;;;;;;;3.83;1.08;;;6.30;99.90;;;;;;5047682;28;20052;-64
2024/03/11 03:24:54;;;;;;;1.67;0.75;;;6.30;99.90;;;;;;5048544;28;20045;-64
2024/03/11 03:27:21;;;;;;;1.15;0.60;;;6.40;99.90;;;;;;5053047;28;20044;-64
2024/03/11 03:29:48;;;;;;;0.95;0.60;;;6.40;99.90;;;;;;5054241;28;20071;-64
2024/03/11 03:32:19;;;;;;;2.40;0.93;;;6.40;99.90;;;;;;5054159;28;20048;-64
2024/03/11 03:34:46;;;;;;;0.68;0.60;;;6.40;99.90;;;;;;5055168;28;20066;-64
2024/03/11 03:37:14;;;;;;;1.42;0.80;;;6.40;99.90;;;;;;5058003;28;20169;-64
2024/03/11 03:39:41;;;;;;;0.75;0.65;;;6.40;99.90;;;;;;5052843;28;20048;-64
2024/03/11 03:42:09;;;;;;;4.65;0.80;;;6.40;99.90;;;;;;5054949;28;20044;-64
2024/03/11 03:44:36;;;;;;;1.33;0.80;;;6.40;99.90;;;;;;5060179;28;20135;-64
2024/03/11 03:47:03;;;;;;;2.55;0.68;;;6.30;99.90;;;;;;5050409;28;20045;-64
2024/03/11 03:49:30;;;;;;;0.60;0.60;;;6.30;99.90;;;;;;5059698;28;20045;-64
2024/03/11 03:51:57;;;;;;;1.13;0.70;;;6.30;99.90;;;;;;5057198;28;20488;-64
2024/03/11 03:54:24;;;;;;;1.10;0.85;;;6.20;99.90;;;;;;5052394;28;20099;-64
2024/03/11 03:56:52;;;;;;;1.45;0.70;;;6.20;99.90;;;;;;5056614;28;20358;-65
2024/03/11 03:59:19;;;;;;;1.92;0.90;;;6.20;99.90;;;;;;5054328;28;20041;-65
2024/03/11 04:01:46;;;;;;;1.33;1.20;;;6.20;99.90;;;;;;5056250;28;20148;-65
2024/03/11 04:04:13;;;;;;;1.67;1.17;;;6.10;99.90;;;;;;5058541;28;20056;-65
2024/03/11 04:06:39;;;;;;;0.65;0.63;;;6.00;99.90;;;;;;5054663;28;20118;-65
2024/03/11 04:09:08;;;;;;;0.60;0.60;;;5.90;99.90;;;;;;5043808;28;20056;-65
2024/03/11 04:11:35;;;;;;;1.75;0.77;;;5.90;99.90;;;;;;5050668;28;20053;-65
2024/03/11 04:14:02;;;;;;;0.60;0.60;;;6.00;99.90;;;;;;5050849;28;20044;-65
2024/03/11 04:16:29;;;;;;;2.58;0.77;;;6.00;99.90;;;;;;5049511;28;20056;-65
2024/03/11 04:18:56;;;;;;;2.50;0.70;;;6.10;99.90;;;;;;5047250;28;20098;-65
2024/03/11 04:21:22;;;;;;;1.13;0.80;;;6.10;99.90;;;;;;5049208;28;20072;-65
2024/03/11 04:23:50;;;;;;;0.95;0.70;;;6.20;99.90;;;;;;5054258;28;20456;-65
2024/03/11 04:26:17;;;;;;;0.60;0.60;;;6.20;99.90;;;;;;5049107;28;20104;-65
2024/03/11 04:28:44;;;;;;;0.85;0.80;;;6.20;99.90;;;;;;5043042;28;20044;-65
2024/03/11 04:31:11;;;;;;;0.90;0.80;;;6.20;99.90;;;;;;5050301;28;20639;-65
2024/03/11 04:33:39;;;;;;;1.85;0.80;;;6.20;99.90;;;;;;5056803;28;20048;-65
2024/03/11 04:36:06;;;;;;;0.80;0.80;;;6.20;99.90;;;;;;5058004;28;20520;-65
2024/03/11 04:38:33;;;;;;;2.80;0.90;;;6.20;99.90;;;;;;5054668;28;20045;-65
2024/03/11 04:41:02;;;;;;;1.23;1.10;;;6.20;99.90;;;;;;5057688;28;20589;-65
2024/03/11 04:43:29;;;;;;;2.20;0.80;;;6.20;99.90;;;;;;5050276;28;20067;-65
2024/03/11 04:45:56;;;;;;;0.93;0.90;;;6.30;99.90;;;;;;5053337;28;20060;-65
2024/03/11 04:48:23;;;;;;;3.22;1.00;;;6.30;99.90;;;;;;5047327;28;20041;-65
2024/03/11 04:50:50;;;;;;;1.55;0.80;;;6.30;99.90;;;;;;5054566;28;20053;-65
2024/03/11 04:53:17;;;;;;;2.90;1.60;;;6.30;99.90;;;;;;5049953;28;20145;-65
2024/03/11 04:55:46;;;;;;;1.63;1.52;;;6.30;99.90;;;;;;5054653;28;20143;-65
2024/03/11 04:58:13;;;;;;;1.80;1.70;;;6.20;99.90;;;;;;5053639;28;20071;-65
2024/03/11 05:00:40;;;;;;;2.95;1.20;;;6.20;99.90;;;;;;5051213;28;20134;-65
2024/03/11 05:03:07;;;;;;;2.53;1.30;;;6.20;99.90;;;;;;5046937;28;20633;-65
2024/03/11 05:05:35;;;;;;;2.70;1.20;;;6.20;99.90;;;;;;5050987;28;20052;-65
2024/03/11 05:08:03;;;;;;;1.50;1.00;;;6.20;99.90;;;;;;5053968;28;20482;-65
2024/03/11 05:10:31;;;;;;;2.00;1.30;;;6.10;99.90;;;;;;5054310;28;20045;-65
2024/03/11 05:12:58;;;;;;;2.50;1.30;;;5.90;99.90;;;;;;5052423;28;20121;-65
2024/03/11 05:15:26;;;;;;;3.65;1.50;;;5.80;99.90;;;;;;5057233;28;20170;-65
2024/03/11 05:17:53;;;;;;;4.20;1.25;;;5.70;99.90;;;;;;5049524;28;20041;-65
2024/03/11 05:20:20;;;;;;;1.88;1.60;;;5.50;99.90;;;;;;5057810;28;20144;-65
2024/03/11 05:22:48;;;;;;;3.35;1.40;;;5.40;99.90;;;;;;5059358;28;20594;-65
2024/03/11 05:25:15;;;;;;;3.05;1.58;;;5.30;99.90;;;;;;5059559;28;20048;-64
2024/03/11 05:27:45;;;;;;;3.42;1.52;;;5.20;99.90;;;;;;5057638;28;20118;-65
2024/03/11 05:30:12;;;;;;;1.63;1.40;;;5.10;99.90;;;;;;5061292;28;20048;-65
2024/03/11 05:32:40;;;;;;;4.97;1.60;;;5.10;99.90;;;;;;5057782;28;20453;-65
2024/03/11 05:35:07;;;;;;;3.20;1.63;;;5.00;99.90;;;;;;5057708;28;20506;-65
2024/03/11 05:37:34;;;;;;;3.50;1.90;;;5.00;99.90;;;;;;5054776;28;20049;-65
2024/03/11 05:40:05;;;;;;;1.50;1.33;;;5.00;99.90;;;;;;5061503;28;20101;-65
2024/03/11 05:42:33;;;;;;;1.50;1.23;;;4.90;99.90;;;;;;5056778;28;20037;-65
2024/03/11 05:45:02;;;;;;;1.58;1.42;;;4.90;99.90;;;;;;5049300;28;20037;-65
2024/03/11 05:47:29;;;;;;;3.45;1.88;;;4.80;99.90;;;;;;5052901;28;21683;-65
2024/03/11 05:49:56;;;;;;;4.78;1.85;;;4.70;99.90;;;;;;5054140;28;20061;-65
2024/03/11 05:52:26;;;;;;;3.05;1.55;;;4.70;99.90;;;;;;5062760;28;20053;-65
2024/03/11 05:54:53;;;;;;;2.58;2.08;;;4.70;99.90;;;;;;5049441;28;20080;-65
2024/03/11 05:57:29;;;;;;;2.45;1.70;;;4.70;99.90;;;;;;5040711;28;20131;-65
2024/03/11 05:59:57;;;;;;;2.17;1.77;;;4.80;99.90;;;;;;5052554;28;20083;-65
2024/03/11 06:02:23;;;;;;;3.60;2.33;;;4.90;99.90;;;;;;5050636;28;20070;-65
2024/03/11 06:04:51;;;;;;;3.58;2.92;;;5.00;99.90;;;;;;5044179;28;20052;-65
2024/03/11 06:07:25;;;;;;;11.10;6.85;;;5.10;99.90;;;;;;5039633;28;20135;-65
2024/03/11 06:09:52;;;;;;;4.80;3.53;;;5.20;99.90;;;;;;5039427;28;20503;-65
2024/03/11 06:12:22;;;;;;;4.20;3.35;;;5.40;99.90;;;;;;5047766;28;20098;-65
2024/03/11 06:14:50;;;;;;;8.60;3.80;;;5.50;99.90;;;;;;5044302;28;20135;-65
2024/03/11 06:17:17;;;;;;;4.38;2.72;;;5.60;99.90;;;;;;5052358;28;20471;-66
2024/03/11 06:19:44;;;;;;;3.13;2.30;;;5.70;99.90;;;;;;5042811;28;20098;-65
2024/03/11 06:22:15;;;;;;;6.65;2.65;;;5.90;99.90;;;;;;5052454;28;20125;-65
2024/03/11 06:24:43;;;;;;;;;;;6.00;99.90;;;;;;5043578;28;20695;-65
2024/03/11 06:27:11;;;;;;;2.47;1.73;;;6.00;99.90;;;;;;5049110;28;19922;-65
2024/03/11 06:29:42;;;;;;;3.28;1.88;;;6.10;99.90;;;;;;5045636;28;20152;-65
2024/03/11 06:32:10;;;;;;;2.17;1.52;;;6.20;99.90;;;;;;5046990;28;20111;-65
2024/03/11 06:34:37;;;;;;;1.48;1.38;;;6.20;99.90;;;;;;5043892;28;20099;-65
2024/03/11 06:37:04;;;;;;;4.03;1.77;;;6.30;99.90;;;;;;5044449;28;20067;-65
2024/03/11 06:39:31;;;;;;;7.75;2.72;;;6.40;99.90;;;;;;5048143;28;20049;-65
2024/03/11 06:42:00;;;;;;;9.38;6.78;;;6.60;99.90;;;;;;5041714;28;20049;-65
2024/03/11 06:44:27;;;;;;;6.07;4.30;;;6.60;99.90;;;;;;5043315;28;20068;-65
2024/03/11 06:47:09;;;;;;;5.43;4.00;;;6.60;99.90;;;;;;5049023;28;20040;-65
2024/03/11 06:49:36;;;;;;;5.57;3.38;;;6.70;99.90;;;;;;5045256;28;21335;-65
2024/03/11 06:52:06;;;;;;;4.97;2.92;;;6.70;99.90;;;;;;5048203;28;20611;-64
2024/03/11 06:54:34;;;;;;;4.82;2.90;;;6.80;99.90;;;;;;5043183;28;20059;-61
2024/03/11 06:57:01;;;;;;;6.13;3.40;;;6.90;99.90;;;;;;5047165;28;20095;-61
2024/03/11 06:59:31;;;;;;;7.22;3.25;;;6.90;99.90;;;;;;5052979;28;20048;-61
2024/03/11 07:01:58;;;;;;;5.35;3.03;;;7.00;99.90;;;;;;5050989;28;20049;-59
2024/03/11 07:04:25;;;;;;;4.80;2.88;;;7.10;99.90;;;;;;5051874;28;20493;-60
2024/03/11 07:06:52;;;;;;;4.15;2.80;;;7.20;99.90;;;;;;5046876;28;20049;-61
2024/03/11 07:09:19;;;;;;;7.15;3.00;;;7.30;99.90;;;;;;5057535;28;20045;-61
2024/03/11 07:11:46;;;;;;;4.13;2.88;;;7.40;99.90;;;;;;5049615;28;20049;-60
2024/03/11 07:14:13;;;;;;;5.00;2.97;;;7.50;99.90;;;;;;5055981;28;20089;-60
2024/03/11 07:16:42;;;;;;;5.45;3.13;;;7.60;99.90;;;;;;5057693;28;20052;-60
2024/03/11 07:19:10;;;;;;;4.28;3.20;;;7.70;99.90;;;;;;5056615;28;20048;-61
2024/03/11 07:21:38;;;;;;;5.63;3.53;;;7.80;99.90;;;;;;5056650;28;20127;-61
2024/03/11 07:24:06;;;;;;;3.53;3.08;;;7.90;99.90;;;;;;5045969;28;20091;-60
2024/03/11 07:26:33;;;;;;;6.32;3.22;;;8.00;99.90;;;;;;5054592;28;20077;-61
2024/03/11 07:29:00;;;;;;;3.58;2.90;;;8.10;99.90;;;;;;5056448;28;20083;-60
2024/03/11 07:31:26;;;;;;;5.15;3.15;;;8.10;99.90;;;;;;5038809;28;20057;-61
2024/03/11 07:33:54;;;;;;;4.30;2.92;;;8.20;99.90;;;;;;5055563;28;20045;-59
2024/03/11 07:36:21;;;;;;;7.97;2.85;;;8.30;99.90;;;;;;5047929;28;20053;-61
2024/03/11 07:38:48;;;;;;;4.72;3.38;;;8.30;99.90;;;;;;5048182;28;20079;-61
2024/03/11 07:41:15;;;;;;;4.72;3.65;;;8.30;99.90;;;;;;5053348;28;20556;-61
2024/03/11 07:43:42;;;;;;;5.72;4.45;;;8.60;99.90;;;;;;5049251;28;20489;-60
2024/03/11 07:46:11;;;;;;;10.85;6.47;;;8.70;99.90;;;;;;5049630;28;20386;-61
2024/03/11 07:48:39;;;;;;;10.18;6.43;;;8.90;99.90;;;;;;5050085;28;20048;-61
2024/03/11 07:51:07;;;;;;;13.05;6.13;;;9.10;99.90;;;;;;5042727;28;20118;-59
2024/03/11 07:53:35;;;;;;;5.80;4.47;;;9.20;99.90;;;;;;5049188;28;20052;-61
2024/03/11 07:56:04;;;;;;;7.57;4.07;;;9.20;99.90;;;;;;5053552;28;20060;-61
2024/03/11 07:58:34;;;;;;;5.63;3.58;;;9.20;99.90;;;;;;5048563;28;20446;-61
2024/03/11 08:01:01;;;;;;;;;;;9.20;99.90;;;;;;5051586;28;20095;-61
2024/03/11 08:03:29;;;;;;;3.55;2.80;;;9.20;99.90;;;;;;5054357;28;19931;-61
2024/03/11 08:05:56;;;;;;;3.10;2.78;;;9.30;99.90;;;;;;5050461;28;20289;-59
2024/03/11 08:08:24;;;;;;;5.18;2.63;;;9.40;99.90;;;;;;5052048;28;20136;-61
2024/03/11 08:10:51;;;;;;;6.40;2.83;;;9.60;99.90;;;;;;5047560;28;20559;-60
2024/03/11 08:13:18;;;;;;;10.73;3.35;;;9.70;99.90;;;;;;5053540;28;20139;-61
2024/03/11 08:15:45;;;;;;;10.73;3.03;;;10.00;99.90;;;;;;5049474;28;20045;-61
2024/03/11 08:18:13;;;;;;;4.78;3.15;;;10.20;99.90;;;;;;5053430;28;20045;-61
2024/03/11 08:20:40;;;;;;;3.35;2.53;;;10.30;99.90;;;;;;5057267;28;20421;-61
2024/03/11 08:23:08;;;;;;;4.30;2.30;;;10.30;99.90;;;;;;5048405;28;20044;-61
2024/03/11 08:25:35;;;;;;;2.30;2.10;;;10.30;99.90;;;;;;5055530;28;20561;-61
2024/03/11 08:28:02;;;;;;;5.82;2.50;;;10.10;99.90;;;;;;5056302;28;20106;-60
2024/03/11 08:30:30;;;;;;;5.40;2.25;;;9.70;99.90;;;;;;5056536;28;20140;-61
2024/03/11 08:32:59;;;;;;;3.88;2.25;;;9.30;99.90;;;;;;5054263;28;20049;-61
2024/03/11 08:35:27;;;;;;;6.40;2.42;;;9.00;99.90;;;;;;5053254;28;20045;-61
2024/03/11 08:37:53;;;;;;;3.80;2.90;;;8.80;99.90;;;;;;5049615;28;20045;-61
2024/03/11 08:40:22;;;;;;;3.17;2.40;;;8.60;99.90;;;;;;5057202;28;20055;-60
2024/03/11 08:42:52;;;;;;;2.75;1.70;;;8.60;99.90;;;;;;5056536;28;20044;-61
2024/03/11 08:45:22;;;;;;;3.88;1.65;;;8.80;99.90;;;;;;5076327;28;20052;-61
2024/03/11 08:47:50;;;;;;;2.15;1.30;;;9.10;99.90;;;;;;5053642;28;20049;-61
2024/03/11 08:50:17;;;;;;;1.58;0.90;;;9.70;99.90;;;;;;5055334;28;20052;-61
2024/03/11 08:52:46;;;;;;;1.25;1.00;;;10.20;99.90;;;;;;5052275;28;20049;-59
2024/03/11 08:55:15;;;;;;;4.63;1.00;;;10.60;99.90;;;;;;5058215;28;20098;-61
2024/03/11 08:57:43;;;;;;;1.60;0.70;;;11.00;99.90;;;;;;5048327;28;20096;-61
2024/03/11 09:00:11;;;;;;;0.80;0.60;;;11.20;99.90;;;;;;5055708;28;20059;-61
2024/03/11 09:02:39;;;;;;;0.77;0.52;;;11.30;99.90;;;;;;5060405;28;20521;-61
2024/03/11 09:05:12;;;;;;;0.85;0.52;;;11.40;99.90;;;;;;5054258;28;20404;-61
2024/03/11 09:07:40;;;;;;;0.93;0.60;;;11.50;99.90;;;;;;5056839;28;20105;-61
2024/03/11 09:10:09;;;;;;;2.00;0.77;;;11.50;99.90;;;;;;5053727;28;20048;-61
2024/03/11 09:12:40;;;;;;;1.45;0.85;;;11.40;99.90;;;;;;5058312;28;20642;-61
2024/03/11 09:15:15;;;;;;;1.20;0.80;;;11.50;99.90;;;;;;5055053;28;20053;-61
2024/03/11 09:17:48;;;;;;;3.25;1.00;;;11.50;99.90;;;;;;5054755;28;20497;-60
2024/03/11 09:20:16;;;;;;;1.55;0.60;;;11.60;99.90;;;;;;5053435;28;20056;-61
2024/03/11 09:22:50;;;;;;;1.88;0.60;;;11.60;99.90;;;;;;5049759;28;20040;-61
2024/03/11 09:25:23;;;;;;;1.08;0.60;;;11.60;99.90;;;;;;5054148;28;20049;-61
2024/03/11 09:28:00;;;;;;;1.88;0.60;;;11.50;99.90;;;;;;5055332;28;20657;-60
2024/03/11 09:30:31;;;;;;;4.93;0.80;;;11.50;99.90;;;;;;5055583;28;20041;-60
2024/03/11 09:32:59;;;;;;;1.15;0.60;;;11.40;99.90;;;;;;5058278;28;20098;-61
2024/03/11 09:35:25;;;;;;;0.98;0.57;;;11.30;99.90;;;;;;5057545;28;20105;-61
2024/03/11 09:37:52;;;;;;;0.70;0.57;;;11.20;99.90;;;;;;5055419;28;20047;-61
2024/03/11 09:40:23;;;;;;;1.70;0.77;;;11.10;99.90;;;;;;5059050;28;20048;-61
2024/03/11 09:42:54;;;;;;;2.75;0.70;;;11.10;99.90;;;;;;5056497;28;20070;-60
2024/03/11 09:45:23;;;;;;;2.70;0.90;;;11.00;99.90;;;;;;5056429;28;20150;-61
2024/03/11 09:47:52;;;;;;;1.77;0.70;;;10.90;99.90;;;;;;5053848;28;20468;-61
2024/03/11 09:50:26;;;;;;;0.95;0.47;;;10.90;99.90;;;;;;5059165;28;20132;-61
2024/03/11 09:53:06;;;;;;;3.22;1.13;;;11.00;99.90;;;;;;5053415;28;20619;-61
2024/03/11 09:55:33;;;;;;;;;;;11.10;99.90;;;;;;5059518;28;20493;-61
2024/03/11 09:58:10;;;;;;;2.08;0.60;;;11.00;99.90;;;;;;5058013;28;19926;-61
2024/03/11 10:00:49;;;;;;;1.67;0.60;;;11.10;99.90;;;;;;5054684;28;20053;-61
2024/03/11 10:03:20;;;;;;;1.38;0.73;;;11.20;99.90;;;;;;5053832;28;20045;-61
2024/03/11 10:06:03;;;;;;;2.25;0.80;;;11.20;99.90;;;;;;5052634;28;20060;-61
2024/03/11 10:08:31;;;;;;;2.92;0.70;;;11.20;99.90;;;;;;5057665;28;20039;-61
2024/03/11 10:11:20;;;;;;;1.52;0.65;;;11.30;99.90;;;;;;5054805;28;20110;-60
2024/03/11 10:13:52;;;;;;;1.13;0.70;;;11.50;99.90;;;;;;5055140;28;20163;-61
2024/03/11 10:16:21;;;;;;;;;;;11.60;99.90;;;;;;5061266;28;20056;-61
2024/03/11 10:18:55;;;;;;;1.53;0.60;;;11.60;99.90;;;;;;5055263;28;19938;-61
2024/03/11 10:21:24;;;;;;;1.48;0.75;;;11.90;99.90;;;;;;5058212;28;20096;-61
2024/03/11 10:23:52;;;;;;;1.02;0.68;;;12.10;99.90;;;;;;5052744;28;20049;-59
2024/03/11 10:26:18;;;;;;;3.28;0.73;;;12.20;99.90;;;;;;5054664;28;20491;-61
2024/03/11 10:28:49;;;;;;;2.35;0.82;;;12.30;99.90;;;;;;5055548;28;20044;-61
2024/03/11 10:31:24;;;;;;;0.88;0.45;;;12.50;99.90;;;;;;5048843;28;20111;-61
2024/03/11 10:33:56;;;;;;;1.88;0.80;;;12.50;99.90;;;;;;5055985;28;20081;-61
2024/03/11 10:36:24;;;;;;;0.98;0.60;;;12.50;99.90;;;;;;5053208;28;20555;-61
2024/03/11 10:38:57;;;;;;;0.77;0.57;;;12.50;99.90;;;;;;5055554;28;20080;-60
2024/03/11 10:41:25;;;;;;;0.88;0.60;;;12.50;99.90;;;;;;5057210;28;20044;-61
2024/03/11 10:43:55;;;;;;;0.98;0.77;;;12.60;99.90;;;;;;5058029;28;20655;-61
2024/03/11 10:46:22;;;;;;;2.45;1.00;;;12.50;99.90;;;;;;5051573;28;20384;-60
2024/03/11 10:48:51;;;;;;;1.40;0.70;;;12.60;99.90;;;;;;5055660;28;20117;-61
2024/03/11 10:51:21;;;;;;;2.67;1.05;;;12.70;99.90;;;;;;5050658;28;20052;-61
2024/03/11 10:53:51;;;;;;;2.50;1.10;;;12.70;99.90;;;;;;5055249;28;20049;-61
2024/03/11 10:56:25;;;;;;;4.57;0.88;;;12.80;99.90;;;;;;5059202;28;20060;-61
2024/03/11 10:58:56;;;;;;;2.35;1.08;;;12.90;99.90;;;;;;5052701;28;20052;-61
2024/03/11 11:01:33;;;;;;;1.42;0.98;;;12.80;99.90;;;;;;5056463;28;20090;-61
2024/03/11 11:04:13;;;;;;;4.53;0.88;;;12.70;99.90;;;;;;5052533;28;20041;-60
2024/03/11 11:06:47;;;;;;;1.60;0.93;;;12.50;99.90;;;;;;5051308;28;20052;-60
2024/03/11 11:09:14;;;;;;;1.65;0.80;;;12.30;99.90;;;;;;5052930;28;20508;-61
2024/03/11 11:11:45;;;;;;;2.30;0.70;;;12.10;99.90;;;;;;5051304;28;20048;-61
2024/03/11 11:14:12;;;;;;;1.20;0.60;;;12.10;99.90;;;;;;5052867;28;20151;-61
2024/03/11 11:16:43;;;;;;;1.85;0.77;;;12.10;99.90;;;;;;5058508;28;20083;-61
2024/03/11 11:19:13;;;;;;;3.97;1.60;;;12.00;99.90;;;;;;5052106;28;20141;-61
2024/03/11 11:21:43;;;;;;;3.92;1.15;;;11.90;99.90;;;;;;5054073;28;20094;-60
2024/03/11 11:24:22;;;;;;;3.08;1.38;;;11.90;99.90;;;;;;5045420;28;20058;-61
2024/03/11 11:26:58;;;;;;;2.95;1.02;;;11.90;99.90;;;;;;5053578;28;20044;-61
2024/03/11 11:29:25;;;;;;;;;;;12.00;99.90;;;;;;5053681;28;20595;-61
2024/03/11 11:32:11;;;;;;;2.90;1.33;;;12.00;99.90;;;;;;5049282;28;20462;-61
2024/03/11 11:34:44;;;;;;;5.30;1.38;;;12.10;99.90;;;;;;5055256;28;20052;-61
2024/03/11 11:37:32;;;;;;;2.13;1.15;;;12.10;99.90;;;;;;5047906;28;20056;-61
2024/03/11 11:40:25;;;;;;;1.80;1.20;;;12.00;99.90;;;;;;5054660;28;20060;-61
2024/03/11 11:42:52;;;;;;;0.75;0.75;;;11.90;99.90;;;;;;5056887;28;20064;-61
2024/03/11 11:45:47;;;;;;;2.80;0.80;;;11.70;99.90;;;;;;5054259;28;20045;-61
2024/03/11 11:48:26;;;;;;;4.22;1.30;;;11.50;99.90;;;;;;5056595;28;20110;-61
2024/03/11 11:50:58;;;;;;;1.17;0.90;;;11.40;99.90;;;;;;5058874;28;20054;-60
2024/03/11 11:53:29;;;;;;;2.67;1.30;;;11.30;99.90;;;;;;5058083;28;20048;-61
2024/03/11 11:55:57;;;;;;;1.98;1.00;;;11.30;99.90;;;;;;5061730;28;20509;-61
2024/03/11 11:58:25;;;;;;;2.83;1.05;;;11.30;99.90;;;;;;5060744;28;20098;-60
2024/03/11 12:01:00;;;;;;;5.15;1.00;;;11.30;99.90;;;;;;5055465;28;20081;-60
2024/03/11 12:03:34;;;;;;;1.90;0.98;;;11.30;99.90;;;;;;5061966;28;20411;-60
2024/03/11 12:06:20;;;;;;;1.95;0.90;;;11.20;99.90;;;;;;5054970;28;20049;-60
2024/03/11 12:08:53;;;;;;;3.97;1.15;;;11.20;99.90;;;;;;5057542;28;20516;-60
2024/03/11 12:11:20;;;;;;;3.38;1.50;;;11.10;99.90;;;;;;5051099;28;20519;-60
2024/03/11 12:13:54;;;;;;;2.22;1.20;;;11.20;99.90;;;;;;5055697;28;20241;-61
2024/03/11 12:16:25;;;;;;;2.92;1.10;;;11.30;99.90;;;;;;5060683;28;20048;-60
2024/03/11 12:19:00;;;;;;;3.13;1.25;;;11.30;99.90;;;;;;5056514;28;20048;-60
2024/03/11 12:21:28;;;;;;;1.75;1.00;;;11.40;99.90;;;;;;5054363;28;20072;-60
2024/03/11 12:23:56;;;;;;;4.22;1.15;;;11.40;99.90;;;;;;5052020;28;20504;-60
2024/03/11 12:26:26;;;;;;;1.60;0.93;;;11.40;99.90;;;;;;5056661;28;20490;-60
2024/03/11 12:29:02;;;;;;;1.25;1.00;;;11.50;99.90;;;;;;5059945;28;20041;-63
2024/03/11 12:31:32;;;;;;;2.63;0.80;;;11.50;99.90;;;;;;5051462;28;20061;-64
2024/03/11 12:34:10;;;;;;;6.60;1.30;;;11.40;99.90;;;;;;5062048;28;20045;-64
2024/03/11 12:36:49;;;;;;;0.95;0.82;;;11.50;99.90;;;;;;5058575;28;20157;-64
2024/03/11 12:39:26;;;;;;;2.30;0.85;;;11.70;99.90;;;;;;5052982;28;20485;-64
2024/03/11 12:41:56;;;;;;;1.40;0.95;;;12.00;99.90;;;;;;5064131;28;20137;-64
2024/03/11 12:44:24;;;;;;;1.70;0.90;;;12.40;99.90;;;;;;5053391;28;20045;-64
2024/03/11 12:46:55;;;;;;;1.48;1.05;;;12.70;99.90;;;;;;5057260;28;20048;-64
2024/03/11 12:49:24;;;;;;;1.42;0.75;;;12.90;99.90;;;;;;5061719;28;20040;-65
2024/03/11 12:52:08;;;;;;;2.50;0.95;;;13.10;99.90;;;;;;5057509;28;20428;-65
2024/03/11 12:54:37;;;;;;;2.53;0.95;;;13.20;99.90;;;;;;5059065;28;20903;-65
2024/03/11 12:57:10;;;;;;;2.28;1.02;;;13.10;99.90;;;;;;5059181;28;20087;-65
2024/03/11 12:59:42;;;;;;;2.92;0.80;;;13.00;99.90;;;;;;5057669;28;20080;-65
2024/03/11 13:02:21;;;;;;;1.20;0.70;;;12.90;99.90;;;;;;5058190;28;20041;-65
2024/03/11 13:04:53;;;;;;;0.77;0.60;;;12.80;99.90;;;;;;5060898;28;20040;-65